createdAt,value
2019-06-15T00:00:26.996Z,99391.18
2019-06-15T00:02:54.956Z,99390.15
2019-06-15T00:05:22.641Z,99389.83
2019-06-15T00:07:50.186Z,99388.80
2019-06-15T00:10:17.844Z,99391.71
2019-06-15T00:12:45.798Z,99391.71
2019-06-15T00:15:13.573Z,99392.95
2019-06-15T00:17:41.543Z,99388.80
2019-06-15T00:20:09.274Z,99355.56
2019-06-15T00:22:37.479Z,99342.72
2019-06-15T00:25:05.142Z,99342.72
2019-06-15T00:27:32.753Z,99350.34
2019-06-15T00:30:01.052Z,99343.14
2019-06-15T00:32:29.052Z,99343.14
2019-06-15T00:34:56.805Z,99330.41
2019-06-15T00:37:24.444Z,99330.41
2019-06-15T00:39:52.129Z,99329.16
2019-06-15T00:42:20.207Z,99333.98
2019-06-15T00:44:47.963Z,99342.43
2019-06-15T00:47:15.540Z,99342.43
2019-06-15T00:49:43.303Z,99329.09
2019-06-15T00:52:11.255Z,99312.86
2019-06-15T00:54:50.004Z,99320.39
2019-06-15T00:57:08.123Z,99320.39
2019-06-15T00:59:35.879Z,99337.36
2019-06-15T01:02:03.863Z,99337.36
2019-06-15T01:04:31.533Z,99352.26
2019-06-15T01:06:59.177Z,99341.64
2019-06-15T01:09:26.947Z,99328.69
2019-06-15T01:11:54.905Z,99313.01
2019-06-15T01:14:22.575Z,99307.75
2019-06-15T01:16:50.697Z,99297.61
2019-06-15T01:19:18.310Z,99301.62
2019-06-15T01:21:46.393Z,99297.56
2019-06-15T01:24:14.045Z,99289.12
2019-06-15T01:26:41.708Z,99285.15
2019-06-15T01:29:09.784Z,99287.00
2019-06-15T01:31:37.288Z,99257.33
2019-06-15T01:34:04.988Z,99257.33
2019-06-15T01:36:33.058Z,99251.26
2019-06-15T01:39:00.753Z,99243.98
2019-06-15T01:41:28.422Z,99242.00
2019-06-15T01:43:56.148Z,99237.17
2019-06-15T01:46:24.222Z,99231.64
2019-06-15T01:48:52.004Z,99221.42
2019-06-15T01:51:19.657Z,99211.84
2019-06-15T01:53:47.420Z,99200.28
2019-06-15T01:56:15.506Z,99201.03
2019-06-15T01:58:43.150Z,99201.03
2019-06-15T02:01:10.829Z,99194.52
2019-06-15T02:03:38.475Z,99195.33
2019-06-15T02:06:06.544Z,99195.33
2019-06-15T02:08:34.201Z,99192.18
2019-06-15T02:11:01.968Z,99179.95
2019-06-15T02:13:29.728Z,99179.95
2019-06-15T02:15:57.807Z,99168.98
2019-06-15T02:18:25.562Z,99174.20
2019-06-15T02:20:53.128Z,99163.09
2019-06-15T02:23:20.887Z,99160.77
2019-06-15T02:25:48.855Z,99161.19
2019-06-15T02:28:16.530Z,99161.19
2019-06-15T02:30:44.291Z,99161.61
2019-06-15T02:33:12.286Z,99158.06
2019-06-15T02:35:39.918Z,99158.06
2019-06-15T02:38:07.578Z,99157.77
2019-06-15T02:40:35.360Z,99152.77
2019-06-15T02:43:04.391Z,99159.22
2019-06-15T02:45:32.008Z,99159.22
2019-06-15T02:47:59.714Z,99162.94
2019-06-15T02:50:27.319Z,99162.94
2019-06-15T02:52:55.518Z,99145.61
2019-06-15T02:55:23.154Z,99145.61
2019-06-15T02:57:50.818Z,99149.86
2019-06-15T03:00:18.803Z,99146.17
2019-06-15T03:02:46.558Z,99149.89
2019-06-15T03:05:14.135Z,99161.86
2019-06-15T03:07:42.186Z,99167.09
2019-06-15T03:10:09.953Z,99171.84
2019-06-15T03:12:38.126Z,99171.20
2019-06-15T03:15:06.208Z,99179.28
2019-06-15T03:17:33.966Z,99178.95
2019-06-15T03:20:01.720Z,99182.00
2019-06-15T03:22:29.411Z,99181.67
2019-06-15T03:24:57.475Z,99181.67
2019-06-15T03:27:25.213Z,99184.22
2019-06-15T03:29:53.194Z,99184.22
2019-06-15T03:32:20.859Z,99176.84
2019-06-15T03:34:48.981Z,99167.59
2019-06-15T03:37:16.579Z,99175.35
2019-06-15T03:39:44.110Z,99176.84
2019-06-15T03:42:11.750Z,99175.64
2019-06-15T03:44:39.483Z,99175.97
2019-06-15T03:47:07.080Z,99178.66
2019-06-15T03:49:34.743Z,99179.63
2019-06-15T03:52:02.764Z,99179.63
2019-06-15T03:54:30.472Z,99183.00
2019-06-15T03:56:58.103Z,99166.75
2019-06-15T03:59:26.184Z,99166.75
2019-06-15T04:01:53.708Z,99170.73
2019-06-15T04:04:21.318Z,99171.66
2019-06-15T04:06:49.305Z,99167.44
2019-06-15T04:09:17.333Z,99159.22
2019-06-15T04:11:44.916Z,99159.22
2019-06-15T04:14:12.599Z,99164.11
2019-06-15T04:16:40.610Z,99158.58
2019-06-15T04:19:08.752Z,99157.73
2019-06-15T04:21:36.350Z,99155.50
2019-06-15T04:24:03.999Z,99158.16
2019-06-15T04:26:36.071Z,99156.53
2019-06-15T04:29:01.368Z,99148.03
2019-06-15T04:31:29.143Z,99148.03
2019-06-15T04:33:56.804Z,99162.78
2019-06-15T04:36:24.433Z,99162.78
2019-06-15T04:38:52.094Z,99160.52
2019-06-15T04:41:19.687Z,99160.52
2019-06-15T04:43:47.385Z,99158.25
2019-06-15T04:46:15.460Z,99161.41
2019-06-15T04:48:43.141Z,99165.02
2019-06-15T04:51:10.743Z,99185.50
2019-06-15T04:53:38.444Z,99185.50
2019-06-15T04:56:06.578Z,99199.88
2019-06-15T04:58:34.336Z,99199.88
2019-06-15T05:01:02.297Z,99198.67
2019-06-15T05:03:29.925Z,99208.36
2019-06-15T05:05:58.017Z,99204.95
2019-06-15T05:08:25.659Z,99204.45
2019-06-15T05:10:59.471Z,99204.45
2019-06-15T05:13:22.796Z,99199.50
2019-06-15T05:15:50.893Z,99208.77
2019-06-15T05:18:18.514Z,99208.77
2019-06-15T05:20:46.191Z,99205.03
2019-06-15T05:23:13.803Z,99205.03
2019-06-15T05:25:42.517Z,99196.86
2019-06-15T05:28:10.577Z,99189.16
2019-06-15T05:30:38.237Z,99195.38
2019-06-15T05:33:05.764Z,99195.38
2019-06-15T05:35:33.990Z,99197.75
2019-06-15T05:38:01.641Z,99201.24
2019-06-15T05:40:29.325Z,99212.97
2019-06-15T05:42:56.791Z,99220.93
2019-06-15T05:45:24.854Z,99220.93
2019-06-15T05:47:52.517Z,99223.58
2019-06-15T05:50:20.212Z,99229.42
2019-06-15T05:52:48.293Z,99227.29
2019-06-15T05:55:15.911Z,99225.03
2019-06-15T05:57:43.552Z,99217.14
2019-06-15T06:00:11.767Z,99225.09
2019-06-15T06:02:39.414Z,99238.14
2019-06-15T06:05:06.994Z,99245.21
2019-06-15T06:07:34.966Z,99250.23
2019-06-15T06:10:02.528Z,99245.87
2019-06-15T06:12:30.118Z,99247.53
2019-06-15T06:14:58.097Z,99247.53
2019-06-15T06:17:26.029Z,99253.89
2019-06-15T06:19:53.492Z,99253.89
2019-06-15T06:22:21.511Z,99254.73
2019-06-15T06:24:49.040Z,99254.03
2019-06-15T06:27:16.600Z,99254.03
2019-06-15T06:29:44.440Z,99262.69
2019-06-15T06:32:12.020Z,99262.69
2019-06-15T06:34:39.570Z,99260.23
2019-06-15T06:37:07.535Z,99269.70
2019-06-15T06:39:35.144Z,99263.57
2019-06-15T06:42:02.871Z,99264.97
2019-06-15T06:44:30.882Z,99264.97
2019-06-15T06:46:58.383Z,99266.95
2019-06-15T06:49:25.986Z,99261.41
2019-06-15T06:51:53.891Z,99275.75
2019-06-15T06:54:21.799Z,99275.75
2019-06-15T06:56:49.403Z,99279.98
2019-06-15T06:59:17.356Z,99291.22
2019-06-15T07:01:45.278Z,99284.94
2019-06-15T07:04:12.863Z,99299.38
2019-06-15T07:06:40.797Z,99288.50
2019-06-15T07:09:08.415Z,99287.63
2019-06-15T07:11:35.982Z,99280.80
2019-06-15T07:14:04.006Z,99280.80
2019-06-15T07:16:31.576Z,99286.55
2019-06-15T07:18:59.197Z,99296.67
2019-06-15T07:21:27.116Z,99304.69
2019-06-15T07:23:55.052Z,99309.45
2019-06-15T07:26:22.648Z,99309.45
2019-06-15T07:28:50.545Z,99316.63
2019-06-15T07:31:18.107Z,99325.91
2019-06-15T07:33:45.696Z,99325.91
2019-06-15T07:36:13.830Z,99330.03
2019-06-15T07:38:41.397Z,99340.67
2019-06-15T07:41:09.730Z,99345.40
2019-06-15T07:43:37.747Z,99354.28
2019-06-15T07:46:05.402Z,99354.28
2019-06-15T07:48:33.086Z,99361.66
2019-06-15T07:51:01.180Z,99353.63
2019-06-15T07:53:29.606Z,99353.63
2019-06-15T07:55:57.344Z,99361.41
2019-06-15T07:58:25.434Z,99376.77
2019-06-15T08:00:53.048Z,99376.77
2019-06-15T08:03:20.636Z,99373.66
2019-06-15T08:05:48.612Z,99379.22
2019-06-15T08:08:16.211Z,99378.45
2019-06-15T08:10:43.799Z,99386.93
2019-06-15T08:13:11.839Z,99387.97
2019-06-15T08:15:39.312Z,99399.17
2019-06-15T08:18:09.716Z,99394.28
2019-06-15T08:20:36.552Z,99405.29
2019-06-15T08:23:04.192Z,99407.51
2019-06-15T08:25:31.750Z,99402.73
2019-06-15T08:27:59.763Z,99401.38
2019-06-15T08:30:27.417Z,99401.38
2019-06-15T08:32:55.031Z,99395.56
2019-06-15T08:35:22.689Z,99406.33
2019-06-15T08:37:50.262Z,99406.33
2019-06-15T08:40:17.848Z,99391.96
2019-06-15T08:42:45.392Z,99389.41
2019-06-15T08:45:13.297Z,99389.41
2019-06-15T08:47:40.874Z,99386.49
2019-06-15T08:50:08.477Z,99394.91
2019-06-15T08:52:36.401Z,99398.23
2019-06-15T08:55:03.969Z,99395.41
2019-06-15T08:57:31.550Z,99398.55
2019-06-15T08:59:59.614Z,99399.26
2019-06-15T09:02:27.145Z,99399.26
2019-06-15T09:04:54.766Z,99390.60
2019-06-15T09:07:22.754Z,99407.84
2019-06-15T09:09:50.329Z,99412.83
2019-06-15T09:12:17.949Z,99415.54
2019-06-15T09:14:45.902Z,99415.54
2019-06-15T09:17:13.925Z,99413.48
2019-06-15T09:19:41.524Z,99413.48
2019-06-15T09:22:09.572Z,99415.35
2019-06-15T09:24:37.136Z,99417.77
2019-06-15T09:27:04.752Z,99421.14
2019-06-15T09:29:32.975Z,99436.19
2019-06-15T09:32:00.543Z,99428.98
2019-06-15T09:34:28.104Z,99440.97
2019-06-15T09:36:56.159Z,99447.91
2019-06-15T09:39:23.736Z,99454.69
2019-06-15T09:41:51.367Z,99456.77
2019-06-15T09:44:19.292Z,99458.06
2019-06-15T09:46:47.181Z,99462.74
2019-06-15T09:49:15.169Z,99477.58
2019-06-15T09:51:43.130Z,99493.75
2019-06-15T09:54:10.737Z,99493.75
2019-06-15T09:56:38.788Z,99509.14
2019-06-15T09:59:06.699Z,99509.14
2019-06-15T10:01:34.291Z,99511.45
2019-06-15T10:04:01.843Z,99528.73
2019-06-15T10:06:29.770Z,99528.73
2019-06-15T10:08:57.366Z,99531.82
2019-06-15T10:11:24.996Z,99531.82
2019-06-15T10:13:52.965Z,99528.73
2019-06-15T10:16:20.538Z,99525.77
2019-06-15T10:18:48.188Z,99523.55
2019-06-15T10:21:16.062Z,99523.55
2019-06-15T10:23:43.701Z,99515.22
2019-06-15T10:26:11.597Z,99516.45
2019-06-15T10:28:39.597Z,99516.45
2019-06-15T10:31:07.168Z,99524.70
2019-06-15T10:33:34.769Z,99532.92
2019-06-15T10:36:02.718Z,99543.36
2019-06-15T10:38:30.280Z,99543.36
2019-06-15T10:40:57.902Z,99546.68
2019-06-15T10:43:25.857Z,99554.01
2019-06-15T10:45:53.863Z,99554.01
2019-06-15T10:48:21.448Z,99559.98
2019-06-15T10:50:49.494Z,99559.98
2019-06-15T10:53:17.045Z,99559.84
2019-06-15T10:55:44.701Z,99567.02
2019-06-15T10:58:12.631Z,99572.30
2019-06-15T11:00:40.293Z,99582.81
2019-06-15T11:03:07.964Z,99601.09
2019-06-15T11:05:35.897Z,99601.09
2019-06-15T11:08:03.535Z,99599.62
2019-06-15T11:10:31.076Z,99601.16
2019-06-15T11:12:59.112Z,99600.48
2019-06-15T11:15:26.745Z,99593.93
2019-06-15T11:17:54.306Z,99605.44
2019-06-15T11:20:22.296Z,99605.44
2019-06-15T11:22:49.934Z,99618.08
2019-06-15T11:25:17.689Z,99629.83
2019-06-15T11:27:45.654Z,99629.79
2019-06-15T11:30:14.575Z,99629.79
2019-06-15T11:32:42.416Z,99635.87
2019-06-15T11:35:10.413Z,99638.88
2019-06-15T11:37:38.033Z,99638.88
2019-06-15T11:40:05.742Z,99647.96
2019-06-15T11:42:33.322Z,99633.96
2019-06-15T11:45:00.983Z,99639.65
2019-06-15T11:47:28.946Z,99636.61
2019-06-15T11:49:56.529Z,99638.53
2019-06-15T11:52:24.150Z,99638.53
2019-06-15T11:54:52.126Z,99640.27
2019-06-15T11:57:22.043Z,99642.09
2019-06-15T11:59:49.595Z,99651.68
2019-06-15T12:02:17.656Z,99651.68
2019-06-15T12:04:57.637Z,99648.55
2019-06-15T12:07:14.516Z,99648.55
2019-06-15T12:09:42.505Z,99654.97
2019-06-15T12:12:10.078Z,99667.70
2019-06-15T12:14:37.638Z,99667.70
2019-06-15T12:17:05.682Z,99676.31
2019-06-15T12:19:33.370Z,99683.41
2019-06-15T12:22:00.937Z,99683.41
2019-06-15T12:24:28.965Z,99680.53
2019-06-15T12:26:56.554Z,99681.66
2019-06-15T12:29:24.187Z,99681.66
2019-06-15T12:31:52.057Z,99683.33
2019-06-15T12:34:21.210Z,99680.70
2019-06-15T12:36:48.846Z,99680.47
2019-06-15T12:39:16.875Z,99683.09
2019-06-15T12:41:44.493Z,99694.66
2019-06-15T12:44:12.113Z,99694.66
2019-06-15T12:46:40.040Z,99689.41
2019-06-15T12:49:07.743Z,99689.41
2019-06-15T12:51:35.303Z,99683.02
2019-06-15T12:54:03.279Z,99676.72
2019-06-15T12:56:30.900Z,99676.72
2019-06-15T12:58:58.501Z,99678.45
2019-06-15T13:01:26.396Z,99680.37
2019-06-15T13:03:53.942Z,99694.52
2019-06-15T13:06:21.573Z,99698.84
2019-06-15T13:08:49.607Z,99706.59
2019-06-15T13:11:17.206Z,99706.59
2019-06-15T13:13:44.793Z,99704.61
2019-06-15T13:16:12.831Z,99712.23
2019-06-15T13:18:40.425Z,99712.23
2019-06-15T13:21:08.215Z,99716.41
2019-06-15T13:23:36.323Z,99722.72
2019-06-15T13:26:03.904Z,99714.61
2019-06-15T13:28:31.526Z,99714.82
2019-06-15T13:30:59.534Z,99722.63
2019-06-15T13:33:30.080Z,99717.17
2019-06-15T13:35:57.654Z,99715.89
2019-06-15T13:38:25.652Z,99721.95
2019-06-15T13:40:53.271Z,99725.25
2019-06-15T13:43:20.855Z,99722.01
2019-06-15T13:45:48.869Z,99726.87
2019-06-15T13:48:16.471Z,99728.45
2019-06-15T13:50:44.040Z,99721.56
2019-06-15T13:53:12.014Z,99725.77
2019-06-15T13:55:39.629Z,99727.67
2019-06-15T13:58:07.249Z,99720.55
2019-06-15T14:00:35.193Z,99720.55
2019-06-15T14:03:03.147Z,99728.14
2019-06-15T14:05:33.688Z,99728.14
2019-06-15T14:08:01.633Z,99738.14
2019-06-15T14:10:29.274Z,99733.84
2019-06-15T14:12:56.809Z,99736.73
2019-06-15T14:15:24.906Z,99737.22
2019-06-15T14:17:52.845Z,99731.56
2019-06-15T14:20:20.562Z,99731.56
2019-06-15T14:22:48.418Z,99736.16
2019-06-15T14:25:15.954Z,99735.70
2019-06-15T14:27:43.597Z,99734.61
2019-06-15T14:30:11.673Z,99734.61
2019-06-15T14:32:39.209Z,99730.12
2019-06-15T14:35:06.723Z,99730.12
2019-06-15T14:37:34.625Z,99731.88
2019-06-15T14:40:02.178Z,99716.09
2019-06-15T14:42:32.504Z,99716.09
2019-06-15T14:45:00.032Z,99724.36
2019-06-15T14:47:27.629Z,99729.33
2019-06-15T14:49:56.006Z,99724.58
2019-06-15T14:52:23.891Z,99728.09
2019-06-15T14:54:51.423Z,99730.98
2019-06-15T14:57:19.546Z,99730.98
2019-06-15T14:59:59.667Z,99728.23
2019-06-15T15:02:17.555Z,99734.13
2019-06-15T15:04:45.666Z,99734.13
2019-06-15T15:07:13.286Z,99736.23
2019-06-15T15:09:40.883Z,99733.77
2019-06-15T15:12:09.155Z,99730.83
2019-06-15T15:14:36.662Z,99730.83
2019-06-15T15:17:06.396Z,99736.03
2019-06-15T15:19:35.942Z,99732.66
2019-06-15T15:22:03.133Z,99732.95
2019-06-15T15:24:30.692Z,99731.66
2019-06-15T15:26:58.785Z,99731.66
2019-06-15T15:29:27.051Z,99734.45
2019-06-15T15:31:57.206Z,99733.16
2019-06-15T15:34:26.094Z,99745.30
2019-06-15T15:36:53.673Z,99740.90
2019-06-15T15:39:21.230Z,99751.91
2019-06-15T15:41:49.229Z,99742.26
2019-06-15T15:44:16.819Z,99742.26
2019-06-15T15:46:46.240Z,99753.02
2019-06-15T15:49:16.095Z,99736.83
2019-06-15T15:51:43.381Z,99752.11
2019-06-15T15:54:11.391Z,99757.95
2019-06-15T15:56:39.259Z,99751.91
2019-06-15T15:59:07.005Z,99751.91
2019-06-15T16:01:36.881Z,99747.73
2019-06-15T16:04:06.270Z,99750.80
2019-06-15T16:06:33.590Z,99757.37
2019-06-15T16:09:01.166Z,99757.48
2019-06-15T16:11:31.291Z,99768.47
2019-06-15T16:13:58.536Z,99769.48
2019-06-15T16:16:26.643Z,99769.48
2019-06-15T16:18:56.147Z,99777.56
2019-06-15T16:21:25.902Z,99775.50
2019-06-15T16:23:55.711Z,99792.03
2019-06-15T16:26:22.740Z,99791.44
2019-06-15T16:28:50.687Z,99790.64
2019-06-15T16:31:24.949Z,99790.64
2019-06-15T16:33:47.758Z,99787.55
2019-06-15T16:36:15.437Z,99786.17
2019-06-15T16:38:43.008Z,99787.26
2019-06-15T16:41:10.954Z,99782.33
2019-06-15T16:43:38.510Z,99782.13
2019-06-15T16:46:06.449Z,99782.13
2019-06-15T16:48:36.386Z,99774.94
2019-06-15T16:51:03.502Z,99774.94
2019-06-15T16:53:31.112Z,99781.51
2019-06-15T16:56:00.647Z,99786.63
2019-06-15T16:58:28.254Z,99787.33
2019-06-15T17:00:57.041Z,99787.33
2019-06-15T17:03:29.096Z,99787.83
2019-06-15T17:05:57.187Z,99801.52
2019-06-15T17:08:23.979Z,99801.52
2019-06-15T17:10:51.822Z,99796.32
2019-06-15T17:13:19.451Z,99797.95
2019-06-15T17:15:47.079Z,99792.80
2019-06-15T17:18:15.058Z,99792.80
2019-06-15T17:20:42.551Z,99791.62
2019-06-15T17:23:10.189Z,99780.00
2019-06-15T17:25:38.176Z,99780.00
2019-06-15T17:28:05.688Z,99789.41
2019-06-15T17:30:33.252Z,99785.95
2019-06-15T17:33:04.752Z,99785.95
2019-06-15T17:35:30.478Z,99779.83
2019-06-15T17:37:58.063Z,99779.83
2019-06-15T17:40:26.823Z,99787.66
2019-06-15T17:42:54.412Z,99787.66
2019-06-15T17:45:22.059Z,99786.50
2019-06-15T17:47:50.009Z,99780.95
2019-06-15T17:50:17.539Z,99785.22
2019-06-15T17:52:46.789Z,99785.02
2019-06-15T17:55:17.710Z,99788.75
2019-06-15T17:57:46.499Z,99789.78
2019-06-15T18:00:16.410Z,99787.56
2019-06-15T18:02:43.252Z,99780.20
2019-06-15T18:05:10.841Z,99781.73
2019-06-15T18:07:38.452Z,99781.73
2019-06-15T18:10:07.199Z,99774.84
2019-06-15T18:12:34.963Z,99781.92
2019-06-15T18:15:02.562Z,99781.92
2019-06-15T18:17:30.556Z,99778.21
2019-06-15T18:19:58.146Z,99778.21
2019-06-15T18:22:25.724Z,99783.93
2019-06-15T18:24:53.930Z,99783.93
2019-06-15T18:27:21.459Z,99781.72
2019-06-15T18:29:49.087Z,99782.22
2019-06-15T18:32:17.246Z,99789.55
2019-06-15T18:34:46.520Z,99789.01
2019-06-15T18:37:14.221Z,99789.01
2019-06-15T18:39:42.164Z,99787.46
2019-06-15T18:42:09.801Z,99792.38
2019-06-15T18:44:37.454Z,99792.38
2019-06-15T18:47:07.141Z,99788.31
2019-06-15T18:49:36.270Z,99791.22
2019-06-15T18:52:06.063Z,99791.72
2019-06-15T18:54:33.061Z,99783.80
2019-06-15T18:57:00.607Z,99784.72
2019-06-15T18:59:28.633Z,99783.42
2019-06-15T19:01:56.281Z,99785.38
2019-06-15T19:04:30.090Z,99777.84
2019-06-15T19:06:55.963Z,99785.95
2019-06-15T19:09:22.999Z,99785.13
2019-06-15T19:11:50.631Z,99789.15
2019-06-15T19:14:18.460Z,99789.15
2019-06-15T19:16:47.188Z,99786.30
2019-06-15T19:19:17.054Z,99786.30
2019-06-15T19:21:46.188Z,99792.70
2019-06-15T19:24:16.571Z,99797.50
2019-06-15T19:26:43.040Z,99797.50
2019-06-15T19:29:11.022Z,99801.94
2019-06-15T19:31:38.579Z,99811.23
2019-06-15T19:34:06.801Z,99811.23
2019-06-15T19:36:36.681Z,99822.56
2019-06-15T19:39:06.241Z,99822.56
2019-06-15T19:41:33.823Z,99821.49
2019-06-15T19:44:01.702Z,99821.49
2019-06-15T19:46:29.315Z,99831.14
2019-06-15T19:48:57.060Z,99854.59
2019-06-15T19:51:26.418Z,99858.06
2019-06-15T19:53:56.576Z,99858.06
2019-06-15T19:56:25.925Z,99860.53
2019-06-15T19:58:53.457Z,99859.03
2019-06-15T20:01:21.086Z,99859.03
2019-06-15T20:03:48.635Z,99869.37
2019-06-15T20:06:17.032Z,99869.97
2019-06-15T20:08:46.770Z,99875.15
2019-06-15T20:11:13.835Z,99875.15
2019-06-15T20:13:41.884Z,99878.08
2019-06-15T20:16:09.441Z,99877.98
2019-06-15T20:18:37.568Z,99877.98
2019-06-15T20:21:07.218Z,99875.51
2019-06-15T20:23:37.241Z,99874.67
2019-06-15T20:26:06.423Z,99884.07
2019-06-15T20:28:33.919Z,99884.07
2019-06-15T20:31:01.599Z,99884.67
2019-06-15T20:33:29.173Z,99884.67
2019-06-15T20:35:58.543Z,99889.39
2019-06-15T20:38:26.932Z,99892.14
2019-06-15T20:40:56.569Z,99892.14
2019-06-15T20:43:27.080Z,99896.56
2019-06-15T20:45:56.038Z,99890.34
2019-06-15T20:48:22.876Z,99886.14
2019-06-15T20:50:50.740Z,99882.17
2019-06-15T20:53:18.293Z,99882.17
2019-06-15T20:55:46.576Z,99889.81
2019-06-15T20:58:17.079Z,99889.68
2019-06-15T21:00:44.220Z,99896.95
2019-06-15T21:03:11.841Z,99899.20
2019-06-15T21:05:42.108Z,99896.98
2019-06-15T21:08:08.937Z,99896.98
2019-06-15T21:10:37.283Z,99907.61
2019-06-15T21:13:05.396Z,99902.42
2019-06-15T21:15:33.033Z,99909.17
2019-06-15T21:18:00.600Z,99912.54
2019-06-15T21:20:28.713Z,99923.50
2019-06-15T21:22:57.175Z,99915.23
2019-06-15T21:25:26.472Z,99919.59
2019-06-15T21:27:56.798Z,99922.47
2019-06-15T21:30:26.856Z,99925.48
2019-06-15T21:32:55.835Z,99925.48
2019-06-15T21:35:23.544Z,99934.22
2019-06-15T21:37:51.313Z,99934.55
2019-06-15T21:40:18.978Z,99941.29
2019-06-15T21:42:47.130Z,99939.43
2019-06-15T21:45:14.711Z,99939.37
2019-06-15T21:47:42.429Z,99934.67
2019-06-15T21:50:10.854Z,99934.67
2019-06-15T21:52:38.538Z,99942.38
2019-06-15T21:55:06.951Z,99950.47
2019-06-15T21:57:36.517Z,99951.45
2019-06-15T22:00:07.411Z,99954.30
2019-06-15T22:02:36.254Z,99947.20
2019-06-15T22:05:03.310Z,99958.13
2019-06-15T22:07:31.443Z,99954.42
2019-06-15T22:09:59.134Z,99967.55
2019-06-15T22:12:27.172Z,99966.02
2019-06-15T22:14:56.909Z,99962.68
2019-06-15T22:17:26.131Z,99963.37
2019-06-15T22:19:54.125Z,99984.78
2019-06-15T22:22:21.731Z,99984.78
2019-06-15T22:24:49.462Z,99977.56
2019-06-15T22:27:17.463Z,99992.88
2019-06-15T22:29:47.247Z,99992.88
2019-06-15T22:32:16.478Z,99987.50
2019-06-15T22:34:43.984Z,99995.91
2019-06-15T22:37:11.668Z,100003.98
2019-06-15T22:39:39.208Z,100003.98
2019-06-15T22:42:07.203Z,100020.36
2019-06-15T22:44:37.024Z,100020.36
2019-06-15T22:47:06.744Z,100022.77
2019-06-15T22:49:35.959Z,100019.58
2019-06-15T22:52:03.310Z,100014.70
2019-06-15T22:54:30.943Z,100014.70
2019-06-15T22:57:00.242Z,100025.30
2019-06-15T22:59:27.912Z,100027.50
2019-06-15T23:01:57.530Z,100033.55
2019-06-15T23:04:26.605Z,100040.63
2019-06-15T23:06:56.534Z,100039.27
2019-06-15T23:09:23.446Z,100038.12
2019-06-15T23:11:51.134Z,100035.58
2019-06-15T23:14:18.782Z,100034.91
2019-06-15T23:16:47.449Z,100034.91
2019-06-15T23:19:17.024Z,100036.92
2019-06-15T23:21:46.326Z,100036.06
2019-06-15T23:24:16.432Z,100044.67
2019-06-15T23:26:46.049Z,100047.36
2019-06-15T23:29:12.751Z,100059.33
2019-06-15T23:31:40.841Z,100050.05
2019-06-15T23:34:08.617Z,100044.02
2019-06-15T23:36:53.150Z,100054.79
2019-06-15T23:39:07.860Z,100056.13
2019-06-15T23:41:36.253Z,100056.13
2019-06-15T23:44:04.053Z,100054.11
2019-06-15T23:46:32.124Z,100061.86
2019-06-15T23:49:00.199Z,100060.85
2019-06-15T23:51:27.961Z,100067.72
2019-06-15T23:53:57.197Z,100071.23
2019-06-15T23:56:26.011Z,100071.23
2019-06-15T23:58:55.986Z,100075.28
